EXS2JZ LTAI-EGPF
Flight info
| Callsign | EXS2JZ |
|---|---|
| Flight time | 4h 25m |
| Altitude | 40000 |
| Route | EVBOL UT489 IMR UN127 RIKSO DCT TALAS DCT ENFAR DCT POD DCT INTIT DCT VELIT DCT PUL DCT ROTAR DCT BORMI DCT RESIA DCT ELMUR L613 HOC DCT LUL DCT RLP DCT ROTSI DCT KOTUN DCT AMAXA DCT VESAN DCT RATUK DCT SOVAT L613 LEHOC DCT ASLIB |
| Aircraft | A332/H-SDE3GHIJ2J3J5M1RVWXY/LB2D1 |
Departure
| Time | 2026-05-04 20:17 |
|---|---|
| Airport | Antalya International Airport (LTAI) |
Arrival
| Time | 2026-05-05 00:42 |
|---|---|
| Airport | Glasgow Airport (EGPF) |
| Time | Latitude | Longitude | Altitude | Speed | Heading |
|---|---|---|---|---|---|
| 2026-05-04 19:53 | 36.89786 | 30.80505 | 184 ft | 0 kts | 274° |
| 2026-05-04 20:02 | 36.89786 | 30.80507 | 184 ft | 2 kts | 274° |
| 2026-05-04 20:02 | 36.89785 | 30.80525 | 196 ft | 2 kts | 277° |
| 2026-05-04 20:03 | 36.89782 | 30.80564 | 204 ft | 5 kts | 276° |
| 2026-05-04 20:03 | 36.89778 | 30.80601 | 206 ft | 4 kts | 276° |
| 2026-05-04 20:03 | 36.89773 | 30.80653 | 185 ft | 2 kts | 276° |
| 2026-05-04 20:03 | 36.89774 | 30.80704 | 185 ft | 6 kts | 224° |
| 2026-05-04 20:04 | 36.89786 | 30.80717 | 184 ft | 1 kts | 201° |
| 2026-05-04 20:13 | 36.89763 | 30.80714 | 183 ft | 8 kts | 188° |
| 2026-05-04 20:14 | 36.89700 | 30.80703 | 183 ft | 10 kts | 187° |
| 2026-05-04 20:14 | 36.89622 | 30.80693 | 182 ft | 13 kts | 186° |
| 2026-05-04 20:14 | 36.89500 | 30.80675 | 182 ft | 26 kts | 186° |
| 2026-05-04 20:14 | 36.89222 | 30.80636 | 180 ft | 55 kts | 186° |
| 2026-05-04 20:15 | 36.88747 | 30.80577 | 179 ft | 81 kts | 186° |
| 2026-05-04 20:15 | 36.88201 | 30.80498 | 175 ft | 42 kts | 188° |
| 2026-05-04 20:15 | 36.88126 | 30.80537 | 174 ft | 14 kts | 127° |
| 2026-05-04 20:15 | 36.88131 | 30.80703 | 173 ft | 14 kts | 41° |
| 2026-05-04 20:16 | 36.88236 | 30.80740 | 175 ft | 1 kts | 355° |
| 2026-05-04 20:16 | 36.88371 | 30.80759 | 175 ft | 56 kts | 6° |
| 2026-05-04 20:16 | 36.89017 | 30.80844 | 180 ft | 129 kts | 6° |
| 2026-05-04 20:16 | 36.90096 | 30.81000 | 193 ft | 179 kts | 6° |
| 2026-05-04 20:17 | 36.91383 | 30.81201 | 790 ft | 182 kts | 3° |
| 2026-05-04 20:17 | 36.91606 | 30.81241 | 963 ft | 182 kts | 4° |
| 2026-05-04 20:17 | 36.91886 | 30.81291 | 1182 ft | 182 kts | 4° |
| 2026-05-04 20:18 | 36.93166 | 30.81744 | 1724 ft | 209 kts | 21° |
| 2026-05-04 20:18 | 36.94561 | 30.82551 | 2101 ft | 229 kts | 18° |
| 2026-05-04 20:18 | 36.96075 | 30.83319 | 2548 ft | 225 kts | 20° |
| 2026-05-04 20:18 | 36.97401 | 30.84064 | 2962 ft | 200 kts | 21° |
| 2026-05-04 20:19 | 36.98688 | 30.84776 | 3453 ft | 206 kts | 20° |
| 2026-05-04 20:19 | 37.00009 | 30.85469 | 3902 ft | 205 kts | 19° |
| 2026-05-04 20:19 | 37.01339 | 30.86125 | 4362 ft | 205 kts | 19° |
| 2026-05-04 20:19 | 37.02668 | 30.86765 | 4803 ft | 208 kts | 19° |
| 2026-05-04 20:20 | 37.04023 | 30.87418 | 4957 ft | 210 kts | 19° |
| 2026-05-04 20:20 | 37.05390 | 30.88082 | 4972 ft | 210 kts | 19° |
| 2026-05-04 20:20 | 37.06747 | 30.88712 | 4964 ft | 206 kts | 14° |
| 2026-05-04 20:20 | 37.08171 | 30.88885 | 4970 ft | 207 kts | 355° |
| 2026-05-04 20:21 | 37.09587 | 30.88519 | 4966 ft | 208 kts | 347° |
| 2026-05-04 20:21 | 37.10995 | 30.88105 | 4973 ft | 207 kts | 348° |
| 2026-05-04 20:21 | 37.13807 | 30.87364 | 4972 ft | 207 kts | 349° |
| 2026-05-04 20:22 | 37.15219 | 30.87015 | 4969 ft | 207 kts | 349° |
| 2026-05-04 20:22 | 37.16633 | 30.86670 | 4974 ft | 206 kts | 349° |
| 2026-05-04 20:22 | 37.18045 | 30.86324 | 4973 ft | 206 kts | 349° |
| 2026-05-04 20:22 | 37.19440 | 30.85979 | 4970 ft | 206 kts | 349° |
| 2026-05-04 20:23 | 37.20846 | 30.85629 | 4975 ft | 206 kts | 349° |
| 2026-05-04 20:23 | 37.22257 | 30.85273 | 4978 ft | 206 kts | 349° |
| 2026-05-04 20:23 | 37.23657 | 30.84921 | 4983 ft | 204 kts | 350° |
| 2026-05-04 20:23 | 37.25036 | 30.84578 | 4977 ft | 203 kts | 350° |
| 2026-05-04 20:24 | 37.26438 | 30.84236 | 4996 ft | 207 kts | 349° |
| 2026-05-04 20:24 | 37.27863 | 30.83880 | 5431 ft | 209 kts | 349° |
| 2026-05-04 20:24 | 37.29278 | 30.83520 | 6206 ft | 207 kts | 349° |
| 2026-05-04 20:24 | 37.30680 | 30.83163 | 6837 ft | 208 kts | 350° |
| 2026-05-04 20:25 | 37.32105 | 30.82807 | 7486 ft | 209 kts | 349° |
| 2026-05-04 20:25 | 37.33549 | 30.82446 | 8107 ft | 212 kts | 349° |
| 2026-05-04 20:25 | 37.35007 | 30.82079 | 8657 ft | 215 kts | 349° |
| 2026-05-04 20:25 | 37.36483 | 30.81708 | 9247 ft | 217 kts | 348° |
| 2026-05-04 20:26 | 37.37979 | 30.81330 | 9780 ft | 222 kts | 348° |
| 2026-05-04 20:26 | 37.39498 | 30.80940 | 9959 ft | 228 kts | 348° |
| 2026-05-04 20:26 | 37.41054 | 30.80542 | 9984 ft | 226 kts | 348° |
| 2026-05-04 20:26 | 37.42599 | 30.80213 | 9994 ft | 222 kts | 354° |
| 2026-05-04 20:27 | 37.44119 | 30.80215 | 9995 ft | 221 kts | 2° |
| 2026-05-04 20:27 | 37.45666 | 30.80302 | 9991 ft | 223 kts | 1° |
| 2026-05-04 20:27 | 37.47217 | 30.80370 | 9993 ft | 223 kts | 1° |
| 2026-05-04 20:27 | 37.48773 | 30.80423 | 9994 ft | 222 kts | 0° |
| 2026-05-04 20:28 | 37.50324 | 30.80470 | 9993 ft | 222 kts | 1° |
| 2026-05-04 20:28 | 37.51842 | 30.80525 | 9995 ft | 219 kts | 1° |
| 2026-05-04 20:28 | 37.53384 | 30.80597 | 9998 ft | 222 kts | 1° |
| 2026-05-04 20:28 | 37.54926 | 30.80668 | 9995 ft | 224 kts | 1° |
| 2026-05-04 20:29 | 37.56483 | 30.80745 | 9992 ft | 223 kts | 1° |
| 2026-05-04 20:29 | 37.58040 | 30.80817 | 10002 ft | 222 kts | 1° |
| 2026-05-04 20:29 | 37.59596 | 30.80886 | 9999 ft | 224 kts | 1° |
| 2026-05-04 20:29 | 37.61126 | 30.80956 | 9997 ft | 222 kts | 1° |
| 2026-05-04 20:30 | 37.62668 | 30.81029 | 9998 ft | 223 kts | 1° |
| 2026-05-04 20:30 | 37.64234 | 30.81091 | 9999 ft | 225 kts | 1° |
| 2026-05-04 20:30 | 37.65796 | 30.81158 | 9998 ft | 223 kts | 1° |
| 2026-05-04 20:30 | 37.67341 | 30.81229 | 10001 ft | 224 kts | 1° |
| 2026-05-04 20:31 | 37.68907 | 30.81300 | 9998 ft | 225 kts | 1° |
| 2026-05-04 20:31 | 37.70470 | 30.81373 | 9993 ft | 223 kts | 1° |
| 2026-05-04 20:31 | 37.72004 | 30.81443 | 10000 ft | 223 kts | 1° |
| 2026-05-04 20:31 | 37.73571 | 30.81512 | 10020 ft | 225 kts | 1° |
| 2026-05-04 20:32 | 37.75165 | 30.81583 | 10170 ft | 236 kts | 1° |
| 2026-05-04 20:32 | 37.76877 | 30.81659 | 10301 ft | 255 kts | 1° |
| 2026-05-04 20:32 | 37.78724 | 30.81740 | 10478 ft | 275 kts | 1° |
| 2026-05-04 20:32 | 37.80709 | 30.81751 | 10638 ft | 293 kts | 359° |
| 2026-05-04 20:33 | 37.82790 | 30.81692 | 10793 ft | 310 kts | 358° |
| 2026-05-04 20:33 | 37.85010 | 30.81614 | 10965 ft | 325 kts | 358° |
| 2026-05-04 20:33 | 37.87298 | 30.81546 | 11507 ft | 329 kts | 358° |
| 2026-05-04 20:33 | 37.89602 | 30.81488 | 12078 ft | 331 kts | 359° |
| 2026-05-04 20:34 | 37.91884 | 30.81440 | 12621 ft | 333 kts | 359° |
| 2026-05-04 20:34 | 37.94216 | 30.81393 | 13174 ft | 335 kts | 359° |
| 2026-05-04 20:34 | 37.96564 | 30.81347 | 13730 ft | 338 kts | 359° |
| 2026-05-04 20:34 | 37.98923 | 30.81301 | 14269 ft | 338 kts | 359° |
| 2026-05-04 20:35 | 38.01260 | 30.81254 | 14789 ft | 339 kts | 359° |
| 2026-05-04 20:35 | 38.03634 | 30.81206 | 15320 ft | 340 kts | 358° |
| 2026-05-04 20:35 | 38.06025 | 30.81158 | 15835 ft | 341 kts | 358° |
| 2026-05-04 20:35 | 38.08376 | 30.81109 | 16295 ft | 343 kts | 358° |
| 2026-05-04 20:36 | 38.10780 | 30.81061 | 16828 ft | 344 kts | 358° |
| 2026-05-04 20:36 | 38.13170 | 30.80973 | 17379 ft | 345 kts | 355° |
| 2026-05-04 20:36 | 38.15584 | 30.80598 | 17920 ft | 346 kts | 352° |
| 2026-05-04 20:36 | 38.17954 | 30.80190 | 18417 ft | 347 kts | 352° |
| 2026-05-04 20:37 | 38.20350 | 30.79789 | 18828 ft | 350 kts | 352° |
| 2026-05-04 20:37 | 38.22786 | 30.79388 | 19255 ft | 352 kts | 352° |
| 2026-05-04 20:37 | 38.25204 | 30.78992 | 19672 ft | 355 kts | 352° |
| 2026-05-04 20:37 | 38.27669 | 30.78587 | 20029 ft | 359 kts | 352° |
| 2026-05-04 20:38 | 38.30154 | 30.78178 | 20524 ft | 359 kts | 352° |
| 2026-05-04 20:38 | 38.32647 | 30.77768 | 20977 ft | 361 kts | 352° |
| 2026-05-04 20:38 | 38.35158 | 30.77354 | 21459 ft | 362 kts | 352° |
| 2026-05-04 20:38 | 38.37570 | 30.76956 | 22587 ft | 345 kts | 352° |
| 2026-05-04 20:39 | 38.39892 | 30.76574 | 23801 ft | 326 kts | 352° |
| 2026-05-04 20:39 | 38.42082 | 30.76211 | 24667 ft | 313 kts | 352° |
| 2026-05-04 20:39 | 38.44248 | 30.75851 | 24906 ft | 311 kts | 352° |
| 2026-05-04 20:39 | 38.46368 | 30.75499 | 24880 ft | 310 kts | 352° |
| 2026-05-04 20:40 | 38.48527 | 30.75141 | 24852 ft | 310 kts | 352° |
| 2026-05-04 20:40 | 38.50638 | 30.74791 | 24841 ft | 309 kts | 352° |
| 2026-05-04 20:40 | 38.52786 | 30.74435 | 24825 ft | 309 kts | 352° |
| 2026-05-04 20:40 | 38.54895 | 30.74085 | 24803 ft | 308 kts | 353° |
| 2026-05-04 20:41 | 38.57034 | 30.73730 | 24810 ft | 313 kts | 353° |
| 2026-05-04 20:41 | 38.59212 | 30.73367 | 25140 ft | 315 kts | 353° |
| 2026-05-04 20:41 | 38.61376 | 30.73006 | 25530 ft | 316 kts | 353° |
| 2026-05-04 20:41 | 38.63572 | 30.72639 | 25907 ft | 318 kts | 353° |
| 2026-05-04 20:42 | 38.65779 | 30.72271 | 26274 ft | 320 kts | 353° |
| 2026-05-04 20:42 | 38.67998 | 30.71902 | 26642 ft | 322 kts | 353° |
| 2026-05-04 20:42 | 38.70204 | 30.71534 | 27004 ft | 323 kts | 354° |
| 2026-05-04 20:42 | 38.72442 | 30.71160 | 27352 ft | 325 kts | 354° |
| 2026-05-04 20:43 | 38.74708 | 30.70780 | 27701 ft | 327 kts | 354° |
| 2026-05-04 20:43 | 38.76953 | 30.70405 | 28040 ft | 329 kts | 354° |
| 2026-05-04 20:43 | 38.79237 | 30.70023 | 28393 ft | 331 kts | 354° |
| 2026-05-04 20:43 | 38.81531 | 30.69639 | 28728 ft | 332 kts | 354° |
| 2026-05-04 20:44 | 38.83799 | 30.69150 | 29058 ft | 336 kts | 349° |
| 2026-05-04 20:44 | 38.86054 | 30.68294 | 29382 ft | 340 kts | 343° |
| 2026-05-04 20:44 | 38.88257 | 30.67069 | 29707 ft | 345 kts | 337° |
| 2026-05-04 20:44 | 38.90381 | 30.65643 | 30006 ft | 348 kts | 337° |
| 2026-05-04 20:45 | 38.92543 | 30.64222 | 30280 ft | 350 kts | 338° |
| 2026-05-04 20:45 | 38.94731 | 30.62803 | 30513 ft | 353 kts | 338° |
| 2026-05-04 20:45 | 38.96935 | 30.61375 | 30755 ft | 356 kts | 338° |
| 2026-05-04 20:45 | 38.99132 | 30.59951 | 31000 ft | 358 kts | 337° |
| 2026-05-04 20:46 | 39.01376 | 30.58492 | 31260 ft | 361 kts | 337° |
| 2026-05-04 20:46 | 39.03629 | 30.57026 | 31513 ft | 364 kts | 337° |
| 2026-05-04 20:46 | 39.05133 | 30.56046 | 31671 ft | 366 kts | 337° |
| 2026-05-04 20:46 | 39.07413 | 30.54559 | 31929 ft | 368 kts | 336° |
| 2026-05-04 20:47 | 39.10460 | 30.52569 | 32242 ft | 372 kts | 336° |
| 2026-05-04 20:47 | 39.12028 | 30.51544 | 32418 ft | 373 kts | 336° |
| 2026-05-04 20:47 | 39.14330 | 30.50039 | 32676 ft | 376 kts | 336° |
| 2026-05-04 20:47 | 39.16674 | 30.48505 | 32922 ft | 379 kts | 336° |
| 2026-05-04 20:48 | 39.19037 | 30.46957 | 33146 ft | 381 kts | 336° |
| 2026-05-04 20:48 | 39.21412 | 30.45399 | 33471 ft | 381 kts | 335° |
| 2026-05-04 20:48 | 39.23782 | 30.43843 | 33797 ft | 381 kts | 335° |
| 2026-05-04 20:48 | 39.26123 | 30.42304 | 34101 ft | 382 kts | 335° |
| 2026-05-04 20:49 | 39.28502 | 30.40741 | 34368 ft | 382 kts | 335° |
| 2026-05-04 20:49 | 39.30871 | 30.39182 | 34614 ft | 382 kts | 335° |
| 2026-05-04 20:49 | 39.33223 | 30.37632 | 34850 ft | 383 kts | 335° |
| 2026-05-04 20:49 | 39.35609 | 30.36059 | 35095 ft | 383 kts | 335° |
| 2026-05-04 20:50 | 39.37991 | 30.34488 | 35330 ft | 384 kts | 335° |
| 2026-05-04 20:50 | 39.40373 | 30.32915 | 35562 ft | 384 kts | 335° |
| 2026-05-04 20:50 | 39.42757 | 30.31339 | 35789 ft | 385 kts | 335° |
| 2026-05-04 20:50 | 39.45116 | 30.29780 | 36013 ft | 385 kts | 335° |
| 2026-05-04 20:51 | 39.47512 | 30.28194 | 36232 ft | 386 kts | 335° |
| 2026-05-04 20:51 | 39.49918 | 30.26614 | 36452 ft | 386 kts | 336° |
| 2026-05-04 20:51 | 39.52396 | 30.25266 | 36653 ft | 386 kts | 339° |
| 2026-05-04 20:51 | 39.54870 | 30.23970 | 36862 ft | 386 kts | 339° |
| 2026-05-04 20:52 | 39.57369 | 30.22646 | 37061 ft | 387 kts | 339° |
| 2026-05-04 20:52 | 39.59842 | 30.21328 | 37258 ft | 388 kts | 339° |
| 2026-05-04 20:52 | 39.62337 | 30.19995 | 37456 ft | 388 kts | 339° |
| 2026-05-04 20:52 | 39.64847 | 30.18652 | 37656 ft | 388 kts | 339° |
| 2026-05-04 20:53 | 39.67352 | 30.17312 | 37855 ft | 389 kts | 339° |
| 2026-05-04 20:53 | 39.69833 | 30.15983 | 38036 ft | 389 kts | 339° |
| 2026-05-04 20:53 | 39.72344 | 30.14638 | 38239 ft | 389 kts | 339° |
| 2026-05-04 20:53 | 39.74858 | 30.13290 | 38417 ft | 390 kts | 339° |
| 2026-05-04 20:54 | 39.77342 | 30.11958 | 38613 ft | 390 kts | 339° |
| 2026-05-04 20:54 | 39.79862 | 30.10606 | 38776 ft | 390 kts | 338° |
| 2026-05-04 20:54 | 39.84927 | 30.07895 | 38865 ft | 396 kts | 339° |
| 2026-05-04 20:55 | 39.90081 | 30.05206 | 39014 ft | 402 kts | 339° |
| 2026-05-04 20:55 | 39.92648 | 30.03916 | 39123 ft | 402 kts | 340° |
| 2026-05-04 20:55 | 39.95324 | 30.02618 | 39260 ft | 403 kts | 341° |
| 2026-05-04 20:56 | 39.97935 | 30.01407 | 39371 ft | 404 kts | 341° |
| 2026-05-04 20:56 | 40.00621 | 30.00229 | 39463 ft | 405 kts | 342° |
| 2026-05-04 20:56 | 40.06019 | 29.98094 | 39628 ft | 409 kts | 345° |
| 2026-05-04 20:57 | 40.11568 | 29.96269 | 39811 ft | 412 kts | 348° |
| 2026-05-04 20:57 | 40.17200 | 29.94859 | 39995 ft | 414 kts | 351° |
| 2026-05-04 20:58 | 40.22804 | 29.93948 | 39679 ft | 402 kts | 355° |
| 2026-05-04 20:58 | 40.25600 | 29.93697 | 39281 ft | 401 kts | 357° |
| 2026-05-04 20:58 | 40.28400 | 29.93597 | 38896 ft | 400 kts | 360° |
| 2026-05-04 20:59 | 40.31143 | 29.93654 | 38590 ft | 396 kts | 2° |
| 2026-05-04 20:59 | 40.33729 | 29.93891 | 39670 ft | 341 kts | 5° |
| 2026-05-04 20:59 | 40.36104 | 29.93918 | 39755 ft | 347 kts | 352° |
| 2026-05-04 20:59 | 40.38587 | 29.93474 | 38940 ft | 375 kts | 350° |
| 2026-05-04 21:00 | 40.41204 | 29.92465 | 37961 ft | 406 kts | 340° |
| 2026-05-04 21:00 | 40.43834 | 29.91004 | 38045 ft | 409 kts | 336° |
| 2026-05-04 21:00 | 40.46275 | 29.89191 | 38419 ft | 407 kts | 327° |
| 2026-05-04 21:00 | 40.48435 | 29.86903 | 39162 ft | 391 kts | 320° |
| 2026-05-04 21:01 | 40.50445 | 29.84377 | 38705 ft | 409 kts | 319° |
| 2026-05-04 21:01 | 40.52528 | 29.81788 | 38721 ft | 413 kts | 319° |
| 2026-05-04 21:01 | 40.54612 | 29.79213 | 39020 ft | 409 kts | 319° |
| 2026-05-04 21:01 | 40.56709 | 29.76626 | 39011 ft | 413 kts | 319° |
| 2026-05-04 21:02 | 40.58785 | 29.74073 | 39189 ft | 412 kts | 319° |
| 2026-05-04 21:02 | 40.60880 | 29.71502 | 39506 ft | 407 kts | 319° |
| 2026-05-04 21:02 | 40.62960 | 29.68956 | 39328 ft | 415 kts | 319° |
| 2026-05-04 21:02 | 40.65105 | 29.66174 | 38395 ft | 446 kts | 316° |
| 2026-05-04 21:03 | 40.67290 | 29.63222 | 38291 ft | 449 kts | 318° |
| 2026-05-04 21:03 | 40.69487 | 29.60390 | 38696 ft | 443 kts | 318° |
| 2026-05-04 21:03 | 40.71764 | 29.57666 | 39031 ft | 437 kts | 322° |
| 2026-05-04 21:03 | 40.74103 | 29.55146 | 39376 ft | 432 kts | 323° |
| 2026-05-04 21:04 | 40.76450 | 29.52704 | 39712 ft | 427 kts | 324° |
| 2026-05-04 21:04 | 40.78777 | 29.50292 | 40027 ft | 423 kts | 324° |
| 2026-05-04 21:04 | 40.83417 | 29.45437 | 40057 ft | 430 kts | 323° |
| 2026-05-04 21:05 | 40.88120 | 29.40467 | 40054 ft | 439 kts | 323° |
| 2026-05-04 21:05 | 40.92916 | 29.35381 | 40053 ft | 445 kts | 323° |
| 2026-05-04 21:06 | 40.97779 | 29.30212 | 40052 ft | 450 kts | 323° |
| 2026-05-04 21:06 | 41.02688 | 29.24987 | 40050 ft | 453 kts | 323° |
| 2026-05-04 21:07 | 41.07585 | 29.19763 | 40044 ft | 455 kts | 323° |
| 2026-05-04 21:07 | 41.12529 | 29.14479 | 40039 ft | 456 kts | 323° |
| 2026-05-04 21:08 | 41.17569 | 29.09380 | 40045 ft | 455 kts | 326° |
| 2026-05-04 21:08 | 41.22681 | 29.04425 | 40044 ft | 456 kts | 326° |
| 2026-05-04 21:09 | 41.27776 | 28.99416 | 40039 ft | 456 kts | 325° |
| 2026-05-04 21:09 | 41.32895 | 28.94344 | 40032 ft | 457 kts | 325° |
| 2026-05-04 21:10 | 41.37961 | 28.89310 | 40033 ft | 457 kts | 325° |
| 2026-05-04 21:10 | 41.43051 | 28.84244 | 40035 ft | 457 kts | 325° |
| 2026-05-04 21:11 | 41.48166 | 28.79143 | 40034 ft | 457 kts | 325° |
| 2026-05-04 21:11 | 41.53236 | 28.74077 | 40039 ft | 457 kts | 325° |
| 2026-05-04 21:12 | 41.58288 | 28.69018 | 40043 ft | 457 kts | 325° |
| 2026-05-04 21:12 | 41.63413 | 28.63877 | 40042 ft | 457 kts | 325° |
| 2026-05-04 21:13 | 41.68485 | 28.58779 | 40045 ft | 457 kts | 325° |
| 2026-05-04 21:13 | 41.73562 | 28.53665 | 40044 ft | 457 kts | 325° |
| 2026-05-04 21:14 | 41.78645 | 28.48535 | 40046 ft | 457 kts | 325° |
| 2026-05-04 21:14 | 41.83742 | 28.43380 | 40045 ft | 457 kts | 324° |
| 2026-05-04 21:15 | 41.88825 | 28.38229 | 40049 ft | 457 kts | 324° |
| 2026-05-04 21:15 | 41.93866 | 28.33110 | 40051 ft | 457 kts | 324° |
| 2026-05-04 21:16 | 41.98862 | 28.27799 | 40051 ft | 458 kts | 319° |
| 2026-05-04 21:16 | 42.03348 | 28.21654 | 40045 ft | 459 kts | 316° |
| 2026-05-04 21:17 | 42.07827 | 28.15519 | 40050 ft | 459 kts | 316° |
| 2026-05-04 21:17 | 42.12291 | 28.09404 | 40053 ft | 459 kts | 316° |
| 2026-05-04 21:18 | 42.16787 | 28.03217 | 40055 ft | 460 kts | 316° |
| 2026-05-04 21:18 | 42.21237 | 27.97075 | 40057 ft | 460 kts | 316° |
| 2026-05-04 21:19 | 42.25716 | 27.90879 | 40055 ft | 460 kts | 316° |
| 2026-05-04 21:19 | 42.30170 | 27.84704 | 40058 ft | 460 kts | 316° |
| 2026-05-04 21:20 | 42.34621 | 27.78521 | 40063 ft | 459 kts | 316° |
| 2026-05-04 21:20 | 42.39065 | 27.72333 | 40066 ft | 459 kts | 316° |
| 2026-05-04 21:21 | 42.43542 | 27.66086 | 40072 ft | 460 kts | 316° |
| 2026-05-04 21:21 | 42.47979 | 27.59881 | 40073 ft | 460 kts | 316° |
| 2026-05-04 21:22 | 42.52419 | 27.53657 | 40075 ft | 460 kts | 316° |
| 2026-05-04 21:22 | 42.56853 | 27.47429 | 40073 ft | 460 kts | 316° |
| 2026-05-04 21:23 | 42.61310 | 27.41155 | 40073 ft | 460 kts | 316° |
| 2026-05-04 21:23 | 42.65747 | 27.34895 | 40074 ft | 460 kts | 316° |
| 2026-05-04 21:24 | 42.70171 | 27.28640 | 40075 ft | 460 kts | 316° |
| 2026-05-04 21:24 | 42.73869 | 27.23401 | 40079 ft | 460 kts | 316° |
| 2026-05-04 21:25 | 42.78309 | 27.17097 | 40080 ft | 461 kts | 315° |
| 2026-05-04 21:25 | 42.82725 | 27.10815 | 40085 ft | 461 kts | 315° |
| 2026-05-04 21:26 | 42.87145 | 27.04512 | 40085 ft | 461 kts | 315° |
| 2026-05-04 21:26 | 42.91600 | 26.98145 | 40081 ft | 461 kts | 315° |
| 2026-05-04 21:27 | 42.96011 | 26.91828 | 40084 ft | 461 kts | 315° |
| 2026-05-04 21:27 | 43.00421 | 26.85496 | 40086 ft | 461 kts | 315° |
| 2026-05-04 21:28 | 43.04851 | 26.79123 | 40082 ft | 461 kts | 315° |
| 2026-05-04 21:28 | 43.09247 | 26.72784 | 40084 ft | 461 kts | 315° |
| 2026-05-04 21:29 | 43.13680 | 26.66378 | 40080 ft | 461 kts | 315° |
| 2026-05-04 21:29 | 43.18067 | 26.60023 | 40088 ft | 461 kts | 315° |
| 2026-05-04 21:30 | 43.22477 | 26.53622 | 40084 ft | 461 kts | 315° |
| 2026-05-04 21:30 | 43.26906 | 26.47179 | 40091 ft | 462 kts | 315° |
| 2026-05-04 21:31 | 43.33503 | 26.37552 | 40081 ft | 462 kts | 315° |
| 2026-05-04 21:32 | 43.37885 | 26.31140 | 40072 ft | 463 kts | 315° |
| 2026-05-04 21:32 | 43.42306 | 26.24656 | 40053 ft | 463 kts | 315° |
| 2026-05-04 21:33 | 43.46689 | 26.18214 | 40051 ft | 463 kts | 314° |
| 2026-05-04 21:33 | 43.51074 | 26.11754 | 40066 ft | 463 kts | 314° |
| 2026-05-04 21:34 | 43.55485 | 26.05241 | 40059 ft | 463 kts | 314° |
| 2026-05-04 21:34 | 43.59885 | 25.98728 | 40062 ft | 463 kts | 314° |
| 2026-05-04 21:35 | 43.64277 | 25.92213 | 40059 ft | 464 kts | 314° |
| 2026-05-04 21:35 | 43.68660 | 25.85696 | 40057 ft | 464 kts | 314° |
| 2026-05-04 21:36 | 43.73047 | 25.79159 | 40055 ft | 464 kts | 314° |
| 2026-05-04 21:36 | 43.77428 | 25.72614 | 40052 ft | 464 kts | 314° |
| 2026-05-04 21:37 | 43.81833 | 25.66019 | 40058 ft | 464 kts | 314° |
| 2026-05-04 21:37 | 43.86205 | 25.59458 | 40056 ft | 464 kts | 314° |
| 2026-05-04 21:38 | 43.90577 | 25.52880 | 40059 ft | 465 kts | 314° |
| 2026-05-04 21:38 | 43.94963 | 25.46274 | 40056 ft | 465 kts | 314° |
| 2026-05-04 21:39 | 43.99211 | 25.39536 | 40061 ft | 465 kts | 308° |
| 2026-05-04 21:39 | 44.03196 | 25.32461 | 40057 ft | 465 kts | 310° |
| 2026-05-04 21:40 | 44.07234 | 25.25395 | 40064 ft | 466 kts | 310° |
| 2026-05-04 21:40 | 44.11253 | 25.18317 | 40062 ft | 466 kts | 309° |
| 2026-05-04 21:41 | 44.15262 | 25.11222 | 40060 ft | 466 kts | 309° |
| 2026-05-04 21:41 | 44.19265 | 25.04119 | 40061 ft | 466 kts | 309° |
| 2026-05-04 21:42 | 44.23277 | 24.96984 | 40061 ft | 466 kts | 309° |
| 2026-05-04 21:42 | 44.27269 | 24.89865 | 40064 ft | 466 kts | 309° |
| 2026-05-04 21:43 | 44.31254 | 24.82743 | 40064 ft | 466 kts | 309° |
| 2026-05-04 21:43 | 44.35223 | 24.75631 | 40061 ft | 466 kts | 309° |
| 2026-05-04 21:44 | 44.39220 | 24.68450 | 40067 ft | 466 kts | 309° |
| 2026-05-04 21:44 | 44.43194 | 24.61295 | 40066 ft | 466 kts | 309° |
| 2026-05-04 21:45 | 44.47171 | 24.54115 | 40060 ft | 466 kts | 309° |
| 2026-05-04 21:45 | 44.51123 | 24.46963 | 40065 ft | 466 kts | 309° |
| 2026-05-04 21:46 | 44.55096 | 24.39755 | 40066 ft | 466 kts | 309° |
| 2026-05-04 21:46 | 44.59043 | 24.32576 | 40068 ft | 466 kts | 309° |
| 2026-05-04 21:47 | 44.62989 | 24.25381 | 40071 ft | 466 kts | 309° |
| 2026-05-04 21:47 | 44.66942 | 24.18155 | 40073 ft | 466 kts | 309° |
| 2026-05-04 21:48 | 44.70876 | 24.10944 | 40073 ft | 466 kts | 309° |
| 2026-05-04 21:48 | 44.74824 | 24.03693 | 40078 ft | 465 kts | 308° |
| 2026-05-04 21:49 | 44.78746 | 23.96470 | 40081 ft | 465 kts | 308° |
| 2026-05-04 21:49 | 44.82685 | 23.89196 | 40079 ft | 465 kts | 308° |
| 2026-05-04 21:50 | 44.86590 | 23.81968 | 40082 ft | 465 kts | 308° |
| 2026-05-04 21:50 | 44.90522 | 23.74669 | 40083 ft | 466 kts | 308° |
| 2026-05-04 21:51 | 44.94425 | 23.67408 | 40085 ft | 466 kts | 308° |
| 2026-05-04 21:51 | 44.98325 | 23.60131 | 40085 ft | 466 kts | 308° |
| 2026-05-04 21:52 | 45.02258 | 23.52777 | 40086 ft | 467 kts | 308° |
| 2026-05-04 21:52 | 45.06169 | 23.45443 | 40091 ft | 467 kts | 308° |
| 2026-05-04 21:53 | 45.10065 | 23.38124 | 40093 ft | 467 kts | 308° |
| 2026-05-04 21:53 | 45.13969 | 23.30767 | 40098 ft | 467 kts | 308° |
| 2026-05-04 21:54 | 45.17844 | 23.23440 | 40101 ft | 466 kts | 308° |
| 2026-05-04 21:54 | 45.21736 | 23.16064 | 40112 ft | 465 kts | 308° |
| 2026-05-04 21:55 | 45.25592 | 23.08741 | 40113 ft | 465 kts | 308° |
| 2026-05-04 21:55 | 45.29468 | 23.01360 | 40121 ft | 465 kts | 308° |
| 2026-05-04 21:56 | 45.33325 | 22.93998 | 40124 ft | 464 kts | 308° |
| 2026-05-04 21:56 | 45.37164 | 22.86649 | 40127 ft | 464 kts | 308° |
| 2026-05-04 21:57 | 45.41000 | 22.79287 | 40130 ft | 464 kts | 308° |
| 2026-05-04 21:57 | 45.44852 | 22.71876 | 40128 ft | 464 kts | 308° |
| 2026-05-04 21:58 | 45.48697 | 22.64459 | 40132 ft | 464 kts | 308° |
| 2026-05-04 21:58 | 45.52511 | 22.57084 | 40123 ft | 464 kts | 308° |
| 2026-05-04 21:59 | 45.56328 | 22.49677 | 40127 ft | 464 kts | 308° |
| 2026-05-04 21:59 | 45.60158 | 22.42232 | 40133 ft | 463 kts | 307° |
| 2026-05-04 22:00 | 45.63960 | 22.34820 | 40135 ft | 463 kts | 307° |
| 2026-05-04 22:00 | 45.67746 | 22.27422 | 40131 ft | 463 kts | 307° |
| 2026-05-04 22:01 | 45.71560 | 22.19946 | 40130 ft | 463 kts | 307° |
| 2026-05-04 22:01 | 45.75335 | 22.12529 | 40122 ft | 463 kts | 307° |
| 2026-05-04 22:02 | 45.79131 | 22.05051 | 40118 ft | 462 kts | 307° |
| 2026-05-04 22:02 | 45.82893 | 21.97616 | 40107 ft | 462 kts | 307° |
| 2026-05-04 22:03 | 45.86674 | 21.90129 | 40100 ft | 461 kts | 307° |
| 2026-05-04 22:03 | 45.90422 | 21.82689 | 40079 ft | 461 kts | 307° |
| 2026-05-04 22:04 | 45.94183 | 21.75200 | 40074 ft | 461 kts | 307° |
| 2026-05-04 22:04 | 45.97919 | 21.67741 | 40069 ft | 461 kts | 307° |
| 2026-05-04 22:05 | 46.01032 | 21.61513 | 40082 ft | 461 kts | 307° |
| 2026-05-04 22:05 | 46.04780 | 21.53992 | 40065 ft | 461 kts | 307° |
| 2026-05-04 22:06 | 46.08492 | 21.46525 | 40065 ft | 461 kts | 307° |
| 2026-05-04 22:06 | 46.12219 | 21.39011 | 40061 ft | 461 kts | 307° |
| 2026-05-04 22:07 | 46.15947 | 21.31471 | 40059 ft | 461 kts | 306° |
| 2026-05-04 22:07 | 46.19662 | 21.23939 | 40061 ft | 461 kts | 306° |
| 2026-05-04 22:08 | 46.23356 | 21.16429 | 40076 ft | 461 kts | 306° |
| 2026-05-04 22:08 | 46.26988 | 21.08823 | 40077 ft | 461 kts | 302° |
| 2026-05-04 22:09 | 46.30287 | 21.00891 | 40079 ft | 461 kts | 302° |
| 2026-05-04 22:09 | 46.33632 | 20.92966 | 40080 ft | 461 kts | 302° |
| 2026-05-04 22:10 | 46.36976 | 20.85017 | 40081 ft | 461 kts | 302° |
| 2026-05-04 22:10 | 46.40316 | 20.77032 | 40073 ft | 462 kts | 302° |
| 2026-05-04 22:11 | 46.43623 | 20.69096 | 40065 ft | 462 kts | 302° |
| 2026-05-04 22:11 | 46.46932 | 20.61132 | 40064 ft | 462 kts | 302° |
| 2026-05-04 22:12 | 46.50252 | 20.53119 | 40069 ft | 462 kts | 302° |
| 2026-05-04 22:12 | 46.53544 | 20.45150 | 40066 ft | 462 kts | 302° |
| 2026-05-04 22:13 | 46.56862 | 20.37095 | 40060 ft | 462 kts | 302° |
| 2026-05-04 22:13 | 46.60149 | 20.29092 | 40058 ft | 462 kts | 302° |
| 2026-05-04 22:14 | 46.63444 | 20.21045 | 40060 ft | 462 kts | 302° |
| 2026-05-04 22:14 | 46.66720 | 20.13021 | 40062 ft | 462 kts | 302° |
| 2026-05-04 22:15 | 46.69988 | 20.04993 | 40068 ft | 462 kts | 301° |
| 2026-05-04 22:15 | 46.73249 | 19.96960 | 40070 ft | 462 kts | 301° |
| 2026-05-04 22:16 | 46.76540 | 19.88829 | 40069 ft | 462 kts | 301° |
| 2026-05-04 22:16 | 46.79784 | 19.80790 | 40075 ft | 462 kts | 301° |
| 2026-05-04 22:17 | 46.83055 | 19.72661 | 40077 ft | 462 kts | 301° |
| 2026-05-04 22:17 | 46.86292 | 19.64589 | 40075 ft | 462 kts | 301° |
| 2026-05-04 22:18 | 46.89543 | 19.56461 | 40071 ft | 462 kts | 301° |
| 2026-05-04 22:18 | 46.92768 | 19.48374 | 40075 ft | 462 kts | 301° |
| 2026-05-04 22:19 | 46.96000 | 19.40245 | 40071 ft | 461 kts | 301° |
| 2026-05-04 22:19 | 46.99210 | 19.32146 | 40065 ft | 461 kts | 301° |
| 2026-05-04 22:20 | 47.02435 | 19.23986 | 40061 ft | 461 kts | 301° |
| 2026-05-04 22:20 | 47.05647 | 19.15835 | 40057 ft | 461 kts | 301° |
| 2026-05-04 22:21 | 47.08845 | 19.07694 | 40055 ft | 461 kts | 301° |
| 2026-05-04 22:21 | 47.12039 | 18.99538 | 40054 ft | 461 kts | 301° |
| 2026-05-04 22:22 | 47.15246 | 18.91324 | 40050 ft | 461 kts | 300° |
| 2026-05-04 22:22 | 47.18422 | 18.83166 | 40045 ft | 461 kts | 300° |
| 2026-05-04 22:23 | 47.21596 | 18.74988 | 40042 ft | 461 kts | 300° |
| 2026-05-04 22:23 | 47.24784 | 18.66750 | 40040 ft | 461 kts | 300° |
| 2026-05-04 22:24 | 47.27940 | 18.58568 | 40041 ft | 461 kts | 300° |
| 2026-05-04 22:24 | 47.31098 | 18.50358 | 40035 ft | 461 kts | 300° |
| 2026-05-04 22:25 | 47.34265 | 18.42097 | 40027 ft | 461 kts | 300° |
| 2026-05-04 22:25 | 47.37412 | 18.33864 | 40025 ft | 461 kts | 300° |
| 2026-05-04 22:26 | 47.40542 | 18.25650 | 40020 ft | 461 kts | 300° |
| 2026-05-04 22:26 | 47.43674 | 18.17405 | 40012 ft | 461 kts | 300° |
| 2026-05-04 22:27 | 47.46818 | 18.09104 | 40002 ft | 461 kts | 300° |
| 2026-05-04 22:27 | 47.49933 | 18.00854 | 39995 ft | 461 kts | 300° |
| 2026-05-04 22:28 | 47.53054 | 17.92562 | 39993 ft | 460 kts | 299° |
| 2026-05-04 22:28 | 47.56153 | 17.84302 | 39992 ft | 460 kts | 299° |
| 2026-05-04 22:29 | 47.59243 | 17.76043 | 39994 ft | 460 kts | 299° |
| 2026-05-04 22:29 | 47.62353 | 17.67702 | 39995 ft | 460 kts | 299° |
| 2026-05-04 22:30 | 47.65441 | 17.59395 | 39988 ft | 460 kts | 299° |
| 2026-05-04 22:30 | 47.68515 | 17.51100 | 39984 ft | 460 kts | 299° |
| 2026-05-04 22:31 | 47.71589 | 17.42780 | 39976 ft | 460 kts | 299° |
| 2026-05-04 22:31 | 47.74671 | 17.34410 | 39969 ft | 460 kts | 299° |
| 2026-05-04 22:32 | 47.77734 | 17.26068 | 39962 ft | 460 kts | 298° |
| 2026-05-04 22:32 | 47.80795 | 17.17717 | 39959 ft | 460 kts | 298° |
| 2026-05-04 22:33 | 47.84084 | 17.09526 | 39959 ft | 460 kts | 308° |
| 2026-05-04 22:33 | 47.88125 | 17.02171 | 39953 ft | 460 kts | 309° |
| 2026-05-04 22:34 | 47.92167 | 16.94772 | 39951 ft | 460 kts | 309° |
| 2026-05-04 22:34 | 47.96182 | 16.87362 | 39940 ft | 461 kts | 308° |
| 2026-05-04 22:35 | 48.00216 | 16.79894 | 39939 ft | 461 kts | 308° |
| 2026-05-04 22:35 | 48.04228 | 16.72447 | 39938 ft | 461 kts | 308° |
| 2026-05-04 22:36 | 48.08262 | 16.64940 | 39939 ft | 461 kts | 308° |
| 2026-05-04 22:36 | 48.12271 | 16.57459 | 39936 ft | 461 kts | 308° |
| 2026-05-04 22:37 | 48.16272 | 16.49973 | 39939 ft | 461 kts | 308° |
| 2026-05-04 22:37 | 48.20268 | 16.42476 | 39935 ft | 461 kts | 308° |
| 2026-05-04 22:38 | 48.24280 | 16.34928 | 39934 ft | 461 kts | 308° |
| 2026-05-04 22:38 | 48.28268 | 16.27403 | 39926 ft | 461 kts | 308° |
| 2026-05-04 22:39 | 48.32248 | 16.19875 | 39919 ft | 462 kts | 308° |
| 2026-05-04 22:39 | 48.36232 | 16.12317 | 39915 ft | 462 kts | 308° |
| 2026-05-04 22:40 | 48.40219 | 16.04731 | 39911 ft | 462 kts | 308° |
| 2026-05-04 22:40 | 48.44234 | 15.97151 | 39912 ft | 462 kts | 308° |
| 2026-05-04 22:41 | 48.48300 | 15.89672 | 39917 ft | 462 kts | 309° |
| 2026-05-04 22:41 | 48.52369 | 15.82148 | 39916 ft | 462 kts | 308° |
| 2026-05-04 22:42 | 48.56414 | 15.74622 | 39913 ft | 462 kts | 308° |
| 2026-05-04 22:42 | 48.60438 | 15.67111 | 39917 ft | 462 kts | 308° |
| 2026-05-04 22:43 | 48.64479 | 15.59547 | 39918 ft | 462 kts | 308° |
| 2026-05-04 22:43 | 48.68525 | 15.51951 | 39917 ft | 462 kts | 308° |
| 2026-05-04 22:44 | 48.72536 | 15.44401 | 39917 ft | 462 kts | 308° |
| 2026-05-04 22:44 | 48.77055 | 15.35868 | 39920 ft | 462 kts | 308° |
| 2026-05-04 22:45 | 48.85059 | 15.20690 | 39924 ft | 462 kts | 308° |
| 2026-05-04 22:45 | 48.91732 | 15.07997 | 39925 ft | 463 kts | 308° |
| 2026-05-04 22:46 | 48.95125 | 15.01661 | 39926 ft | 463 kts | 308° |
| 2026-05-04 22:46 | 48.99202 | 14.94048 | 39925 ft | 463 kts | 308° |
| 2026-05-04 22:47 | 49.03241 | 14.86465 | 39926 ft | 463 kts | 308° |
| 2026-05-04 22:47 | 49.07305 | 14.78800 | 39926 ft | 463 kts | 308° |
| 2026-05-04 22:48 | 49.11339 | 14.71170 | 39932 ft | 463 kts | 308° |
| 2026-05-04 22:48 | 49.15396 | 14.63474 | 39931 ft | 464 kts | 308° |
| 2026-05-04 22:49 | 49.19421 | 14.55818 | 39936 ft | 464 kts | 307° |
| 2026-05-04 22:49 | 49.23468 | 14.48096 | 39936 ft | 464 kts | 307° |
| 2026-05-04 22:50 | 49.27517 | 14.40349 | 39938 ft | 464 kts | 307° |
| 2026-05-04 22:50 | 49.31527 | 14.32653 | 39941 ft | 465 kts | 307° |
| 2026-05-04 22:51 | 49.35570 | 14.24871 | 39926 ft | 465 kts | 307° |
| 2026-05-04 22:51 | 49.39578 | 14.17135 | 39932 ft | 466 kts | 307° |
| 2026-05-04 22:52 | 49.43605 | 14.09339 | 39931 ft | 466 kts | 307° |
| 2026-05-04 22:52 | 49.47634 | 14.01518 | 39941 ft | 466 kts | 307° |
| 2026-05-04 22:53 | 49.51660 | 13.93677 | 39964 ft | 467 kts | 307° |
| 2026-05-04 22:53 | 49.62770 | 13.71929 | 39905 ft | 469 kts | 306° |
| 2026-05-04 22:54 | 49.77087 | 13.43614 | 39985 ft | 467 kts | 306° |
| 2026-05-04 22:54 | 49.81100 | 13.35627 | 39943 ft | 468 kts | 306° |
| 2026-05-04 22:55 | 49.85089 | 13.27662 | 39941 ft | 468 kts | 306° |
| 2026-05-04 22:55 | 49.89073 | 13.19684 | 39943 ft | 468 kts | 306° |
| 2026-05-04 22:56 | 49.93048 | 13.11698 | 39940 ft | 468 kts | 305° |
| 2026-05-04 22:56 | 49.97035 | 13.03664 | 39954 ft | 468 kts | 305° |
| 2026-05-04 22:57 | 50.01016 | 12.95619 | 39957 ft | 468 kts | 305° |
| 2026-05-04 22:57 | 50.04967 | 12.87611 | 39962 ft | 468 kts | 305° |
| 2026-05-04 22:58 | 50.08933 | 12.79546 | 39965 ft | 468 kts | 305° |
| 2026-05-04 22:58 | 50.12864 | 12.71529 | 39960 ft | 467 kts | 305° |
| 2026-05-04 22:59 | 50.16816 | 12.63444 | 39959 ft | 467 kts | 304° |
| 2026-05-04 22:59 | 50.20764 | 12.55342 | 39956 ft | 467 kts | 304° |
| 2026-05-04 23:00 | 50.24675 | 12.47292 | 39954 ft | 467 kts | 304° |
| 2026-05-04 23:00 | 50.28616 | 12.39166 | 39951 ft | 468 kts | 304° |
| 2026-05-04 23:01 | 50.32547 | 12.31095 | 39953 ft | 468 kts | 305° |
| 2026-05-04 23:01 | 50.36522 | 12.22990 | 39953 ft | 468 kts | 305° |
| 2026-05-04 23:02 | 50.40468 | 12.14914 | 39959 ft | 468 kts | 304° |
| 2026-05-04 23:02 | 50.44425 | 12.06781 | 39955 ft | 468 kts | 304° |
| 2026-05-04 23:03 | 50.48376 | 11.98629 | 39960 ft | 468 kts | 304° |
| 2026-05-04 23:03 | 50.52299 | 11.90511 | 39952 ft | 468 kts | 304° |
| 2026-05-04 23:04 | 50.56243 | 11.82325 | 39960 ft | 468 kts | 304° |
| 2026-05-04 23:04 | 50.60150 | 11.74191 | 39964 ft | 468 kts | 304° |
| 2026-05-04 23:05 | 50.64073 | 11.65997 | 39968 ft | 468 kts | 304° |
| 2026-05-04 23:05 | 50.67994 | 11.57782 | 39962 ft | 467 kts | 304° |
| 2026-05-04 23:06 | 50.71891 | 11.49593 | 39959 ft | 467 kts | 304° |
| 2026-05-04 23:06 | 50.75773 | 11.41407 | 39959 ft | 467 kts | 303° |
| 2026-05-04 23:07 | 50.79663 | 11.33179 | 39960 ft | 467 kts | 303° |
| 2026-05-04 23:07 | 50.83537 | 11.24960 | 39959 ft | 466 kts | 303° |
| 2026-05-04 23:08 | 50.87405 | 11.16726 | 39964 ft | 466 kts | 303° |
| 2026-05-04 23:08 | 50.91278 | 11.08459 | 39978 ft | 466 kts | 303° |
| 2026-05-04 23:09 | 50.95132 | 11.00204 | 39980 ft | 466 kts | 303° |
| 2026-05-04 23:09 | 50.98992 | 10.91910 | 39986 ft | 466 kts | 303° |
| 2026-05-04 23:10 | 51.02831 | 10.83634 | 39972 ft | 467 kts | 303° |
| 2026-05-04 23:10 | 51.06694 | 10.75280 | 39964 ft | 467 kts | 303° |
| 2026-05-04 23:11 | 51.10544 | 10.66929 | 39969 ft | 468 kts | 303° |
| 2026-05-04 23:11 | 51.14389 | 10.58560 | 39965 ft | 468 kts | 303° |
| 2026-05-04 23:12 | 51.18201 | 10.50236 | 39968 ft | 468 kts | 303° |
| 2026-05-04 23:12 | 51.22046 | 10.41812 | 39971 ft | 469 kts | 303° |
| 2026-05-04 23:13 | 51.25877 | 10.33407 | 39973 ft | 469 kts | 303° |
| 2026-05-04 23:13 | 51.29793 | 10.25055 | 39974 ft | 470 kts | 304° |
| 2026-05-04 23:14 | 51.33725 | 10.16735 | 39977 ft | 470 kts | 303° |
| 2026-05-04 23:14 | 51.37666 | 10.08332 | 39976 ft | 470 kts | 303° |
| 2026-05-04 23:15 | 51.41571 | 9.99956 | 39975 ft | 470 kts | 303° |
| 2026-05-04 23:15 | 51.45464 | 9.91580 | 39980 ft | 470 kts | 303° |
| 2026-05-04 23:16 | 51.49372 | 9.83143 | 39982 ft | 470 kts | 303° |
| 2026-05-04 23:16 | 51.53257 | 9.74727 | 39983 ft | 470 kts | 303° |
| 2026-05-04 23:17 | 51.57161 | 9.66243 | 39989 ft | 470 kts | 303° |
| 2026-05-04 23:17 | 51.61039 | 9.57788 | 39983 ft | 470 kts | 303° |
| 2026-05-04 23:18 | 51.64908 | 9.49325 | 39982 ft | 471 kts | 303° |
| 2026-05-04 23:18 | 51.68778 | 9.40831 | 39978 ft | 471 kts | 302° |
| 2026-05-04 23:19 | 51.72672 | 9.32258 | 39971 ft | 471 kts | 302° |
| 2026-05-04 23:19 | 51.76535 | 9.23726 | 39963 ft | 471 kts | 302° |
| 2026-05-04 23:20 | 51.80391 | 9.15177 | 39967 ft | 472 kts | 302° |
| 2026-05-04 23:20 | 51.84243 | 9.06609 | 39966 ft | 472 kts | 302° |
| 2026-05-04 23:21 | 51.88095 | 8.98014 | 39966 ft | 472 kts | 302° |
| 2026-05-04 23:21 | 51.91743 | 8.89848 | 39956 ft | 472 kts | 302° |
| 2026-05-04 23:22 | 51.95580 | 8.81230 | 39953 ft | 472 kts | 302° |
| 2026-05-04 23:22 | 51.99418 | 8.72583 | 39958 ft | 472 kts | 302° |
| 2026-05-04 23:23 | 52.03246 | 8.63927 | 39958 ft | 473 kts | 302° |
| 2026-05-04 23:23 | 52.07065 | 8.55264 | 39957 ft | 473 kts | 302° |
| 2026-05-04 23:24 | 52.10910 | 8.46512 | 39954 ft | 473 kts | 302° |
| 2026-05-04 23:24 | 52.14719 | 8.37812 | 39956 ft | 473 kts | 302° |
| 2026-05-04 23:25 | 52.18528 | 8.29080 | 39957 ft | 473 kts | 302° |
| 2026-05-04 23:25 | 52.22321 | 8.20358 | 39957 ft | 473 kts | 302° |
| 2026-05-04 23:26 | 52.26110 | 8.11614 | 39945 ft | 472 kts | 302° |
| 2026-05-04 23:26 | 52.29270 | 8.04301 | 39970 ft | 472 kts | 302° |
| 2026-05-04 23:27 | 52.33071 | 7.95475 | 39956 ft | 473 kts | 302° |
| 2026-05-04 23:27 | 52.36823 | 7.86732 | 39957 ft | 473 kts | 302° |
| 2026-05-04 23:28 | 52.40597 | 7.77907 | 39962 ft | 473 kts | 302° |
| 2026-05-04 23:28 | 52.44368 | 7.69062 | 39971 ft | 473 kts | 302° |
| 2026-05-04 23:29 | 52.48132 | 7.60201 | 39978 ft | 473 kts | 302° |
| 2026-05-04 23:29 | 52.51876 | 7.51355 | 39981 ft | 473 kts | 302° |
| 2026-05-04 23:30 | 52.55622 | 7.42474 | 39985 ft | 473 kts | 301° |
| 2026-05-04 23:30 | 52.59372 | 7.33553 | 39993 ft | 473 kts | 301° |
| 2026-05-04 23:31 | 52.63105 | 7.24645 | 39993 ft | 474 kts | 301° |
| 2026-05-04 23:31 | 52.66804 | 7.15698 | 39992 ft | 473 kts | 299° |
| 2026-05-04 23:32 | 52.70304 | 7.06519 | 39992 ft | 473 kts | 300° |
| 2026-05-04 23:32 | 52.73875 | 6.97374 | 39990 ft | 473 kts | 300° |
| 2026-05-04 23:33 | 52.77408 | 6.88237 | 39991 ft | 473 kts | 300° |
| 2026-05-04 23:33 | 52.80928 | 6.79063 | 39989 ft | 473 kts | 299° |
| 2026-05-04 23:34 | 52.84437 | 6.69875 | 39994 ft | 473 kts | 299° |
| 2026-05-04 23:34 | 52.87932 | 6.60693 | 39995 ft | 473 kts | 299° |
| 2026-05-04 23:35 | 52.91448 | 6.51421 | 39993 ft | 473 kts | 299° |
| 2026-05-04 23:35 | 52.94935 | 6.42195 | 39999 ft | 473 kts | 299° |
| 2026-05-04 23:36 | 52.98415 | 6.32951 | 39995 ft | 473 kts | 299° |
| 2026-05-04 23:36 | 53.01880 | 6.23714 | 40001 ft | 472 kts | 299° |
| 2026-05-04 23:37 | 53.05352 | 6.14425 | 40006 ft | 472 kts | 299° |
| 2026-05-04 23:37 | 53.08808 | 6.05142 | 40015 ft | 472 kts | 299° |
| 2026-05-04 23:38 | 53.12257 | 5.95844 | 40015 ft | 472 kts | 299° |
| 2026-05-04 23:38 | 53.15693 | 5.86547 | 40023 ft | 472 kts | 299° |
| 2026-05-04 23:39 | 53.19124 | 5.77232 | 40010 ft | 472 kts | 299° |
| 2026-05-04 23:39 | 53.22556 | 5.67876 | 40009 ft | 472 kts | 299° |
| 2026-05-04 23:40 | 53.25964 | 5.58553 | 40015 ft | 472 kts | 299° |
| 2026-05-04 23:40 | 53.29400 | 5.49115 | 40025 ft | 472 kts | 299° |
| 2026-05-04 23:41 | 53.32804 | 5.39732 | 40028 ft | 472 kts | 299° |
| 2026-05-04 23:41 | 53.36201 | 5.30333 | 40034 ft | 472 kts | 299° |
| 2026-05-04 23:42 | 53.39592 | 5.20915 | 40041 ft | 472 kts | 299° |
| 2026-05-04 23:42 | 53.42971 | 5.11487 | 40048 ft | 472 kts | 299° |
| 2026-05-04 23:43 | 53.46343 | 5.02053 | 40047 ft | 472 kts | 299° |
| 2026-05-04 23:43 | 53.49701 | 4.92624 | 40052 ft | 471 kts | 299° |
| 2026-05-04 23:44 | 53.53066 | 4.83137 | 40052 ft | 471 kts | 299° |
| 2026-05-04 23:44 | 53.56396 | 4.73708 | 40053 ft | 471 kts | 299° |
| 2026-05-04 23:45 | 53.59744 | 4.64196 | 40059 ft | 471 kts | 299° |
| 2026-05-04 23:45 | 53.63061 | 4.54733 | 40057 ft | 471 kts | 299° |
| 2026-05-04 23:46 | 53.66402 | 4.45166 | 40048 ft | 471 kts | 298° |
| 2026-05-04 23:46 | 53.69699 | 4.35690 | 40047 ft | 471 kts | 298° |
| 2026-05-04 23:47 | 53.73001 | 4.26161 | 40041 ft | 471 kts | 298° |
| 2026-05-04 23:47 | 53.76296 | 4.16616 | 40043 ft | 470 kts | 298° |
| 2026-05-04 23:48 | 53.79603 | 4.06999 | 40045 ft | 470 kts | 298° |
| 2026-05-04 23:48 | 53.82884 | 3.97429 | 40043 ft | 470 kts | 298° |
| 2026-05-04 23:49 | 53.85645 | 3.87440 | 40043 ft | 468 kts | 290° |
| 2026-05-04 23:49 | 53.88147 | 3.77258 | 40043 ft | 468 kts | 291° |
| 2026-05-04 23:50 | 53.90680 | 3.67090 | 40043 ft | 468 kts | 291° |
| 2026-05-04 23:50 | 53.93193 | 3.56926 | 40042 ft | 468 kts | 291° |
| 2026-05-04 23:51 | 53.95680 | 3.46781 | 40042 ft | 468 kts | 291° |
| 2026-05-04 23:51 | 53.98176 | 3.36534 | 40043 ft | 468 kts | 291° |
| 2026-05-04 23:52 | 54.00652 | 3.26320 | 40043 ft | 467 kts | 291° |
| 2026-05-04 23:52 | 54.03116 | 3.16111 | 40040 ft | 467 kts | 291° |
| 2026-05-04 23:53 | 54.05569 | 3.05897 | 40040 ft | 467 kts | 291° |
| 2026-05-04 23:53 | 54.08029 | 2.95607 | 40043 ft | 467 kts | 291° |
| 2026-05-04 23:54 | 54.10469 | 2.85353 | 40043 ft | 467 kts | 291° |
| 2026-05-04 23:54 | 54.12900 | 2.75084 | 40045 ft | 467 kts | 290° |
| 2026-05-04 23:55 | 54.15313 | 2.64846 | 40043 ft | 467 kts | 290° |
| 2026-05-04 23:56 | 54.18935 | 2.49382 | 40042 ft | 467 kts | 290° |
| 2026-05-04 23:56 | 54.21334 | 2.39080 | 40042 ft | 467 kts | 290° |
| 2026-05-04 23:57 | 54.23712 | 2.28818 | 40044 ft | 467 kts | 290° |
| 2026-05-04 23:57 | 54.26092 | 2.18499 | 40040 ft | 467 kts | 290° |
| 2026-05-04 23:58 | 54.28477 | 2.08105 | 40037 ft | 467 kts | 290° |
| 2026-05-04 23:58 | 54.30831 | 1.97793 | 40037 ft | 467 kts | 290° |
| 2026-05-04 23:59 | 54.33191 | 1.87407 | 40034 ft | 467 kts | 290° |
| 2026-05-04 23:59 | 54.35525 | 1.77086 | 40033 ft | 467 kts | 290° |
| 2026-05-05 00:00 | 54.37871 | 1.66658 | 40035 ft | 466 kts | 290° |
| 2026-05-05 00:00 | 54.40197 | 1.56269 | 40036 ft | 466 kts | 290° |
| 2026-05-05 00:01 | 54.42508 | 1.45895 | 40035 ft | 466 kts | 290° |
| 2026-05-05 00:01 | 54.44809 | 1.35519 | 40031 ft | 466 kts | 290° |
| 2026-05-05 00:02 | 54.47119 | 1.25046 | 40029 ft | 466 kts | 290° |
| 2026-05-05 00:02 | 54.49404 | 1.14633 | 40029 ft | 466 kts | 289° |
| 2026-05-05 00:03 | 54.51679 | 1.04215 | 40030 ft | 465 kts | 289° |
| 2026-05-05 00:03 | 54.53938 | 0.93816 | 40022 ft | 465 kts | 289° |
| 2026-05-05 00:04 | 54.56204 | 0.83330 | 40020 ft | 465 kts | 289° |
| 2026-05-05 00:04 | 54.58452 | 0.72877 | 40020 ft | 465 kts | 289° |
| 2026-05-05 00:05 | 54.60685 | 0.62442 | 40020 ft | 465 kts | 289° |
| 2026-05-05 00:05 | 54.62911 | 0.51983 | 40015 ft | 465 kts | 289° |
| 2026-05-05 00:06 | 54.65123 | 0.41538 | 40015 ft | 464 kts | 289° |
| 2026-05-05 00:06 | 54.67332 | 0.31049 | 40011 ft | 464 kts | 289° |
| 2026-05-05 00:07 | 54.69531 | 0.20561 | 40010 ft | 464 kts | 289° |
| 2026-05-05 00:07 | 54.71726 | 0.10028 | 40013 ft | 464 kts | 289° |
| 2026-05-05 00:08 | 54.73907 | -0.00485 | 40007 ft | 464 kts | 289° |
| 2026-05-05 00:08 | 54.76083 | -0.11031 | 40001 ft | 464 kts | 289° |
| 2026-05-05 00:09 | 54.78241 | -0.21551 | 40003 ft | 464 kts | 289° |
| 2026-05-05 00:09 | 54.80028 | -0.30298 | 40006 ft | 464 kts | 289° |
| 2026-05-05 00:10 | 54.82179 | -0.40883 | 40005 ft | 464 kts | 289° |
| 2026-05-05 00:10 | 54.84310 | -0.51424 | 40012 ft | 464 kts | 288° |
| 2026-05-05 00:11 | 54.86437 | -0.62003 | 40009 ft | 464 kts | 288° |
| 2026-05-05 00:11 | 54.87499 | -0.67306 | 39908 ft | 462 kts | 288° |
| 2026-05-05 00:11 | 54.88556 | -0.72593 | 39423 ft | 462 kts | 288° |
| 2026-05-05 00:11 | 54.89591 | -0.77790 | 38937 ft | 458 kts | 288° |
| 2026-05-05 00:12 | 54.90633 | -0.83034 | 38407 ft | 454 kts | 288° |
| 2026-05-05 00:12 | 54.91653 | -0.88186 | 37848 ft | 447 kts | 288° |
| 2026-05-05 00:12 | 54.92648 | -0.93221 | 37366 ft | 442 kts | 288° |
| 2026-05-05 00:12 | 54.93641 | -0.98259 | 36926 ft | 438 kts | 288° |
| 2026-05-05 00:13 | 54.94624 | -1.03259 | 36530 ft | 433 kts | 288° |
| 2026-05-05 00:13 | 54.95596 | -1.08220 | 36129 ft | 429 kts | 288° |
| 2026-05-05 00:13 | 54.96546 | -1.13076 | 35746 ft | 425 kts | 288° |
| 2026-05-05 00:13 | 54.97499 | -1.17961 | 35345 ft | 421 kts | 288° |
| 2026-05-05 00:14 | 54.98427 | -1.22734 | 34972 ft | 416 kts | 288° |
| 2026-05-05 00:14 | 54.99354 | -1.27510 | 34576 ft | 412 kts | 288° |
| 2026-05-05 00:14 | 55.00258 | -1.32176 | 34204 ft | 408 kts | 288° |
| 2026-05-05 00:14 | 55.01162 | -1.36857 | 33793 ft | 404 kts | 288° |
| 2026-05-05 00:15 | 55.02055 | -1.41486 | 33324 ft | 401 kts | 288° |
| 2026-05-05 00:15 | 55.02941 | -1.46094 | 32861 ft | 397 kts | 288° |
| 2026-05-05 00:15 | 55.03817 | -1.50663 | 32402 ft | 394 kts | 288° |
| 2026-05-05 00:15 | 55.04686 | -1.55205 | 31954 ft | 391 kts | 288° |
| 2026-05-05 00:16 | 55.05533 | -1.59644 | 31514 ft | 388 kts | 288° |
| 2026-05-05 00:16 | 55.06385 | -1.64118 | 31078 ft | 384 kts | 288° |
| 2026-05-05 00:16 | 55.07225 | -1.68536 | 30637 ft | 382 kts | 288° |
| 2026-05-05 00:16 | 55.08050 | -1.72885 | 30215 ft | 379 kts | 288° |
| 2026-05-05 00:17 | 55.08881 | -1.77265 | 29728 ft | 376 kts | 287° |
| 2026-05-05 00:17 | 55.09702 | -1.81598 | 29232 ft | 373 kts | 287° |
| 2026-05-05 00:17 | 55.10505 | -1.85850 | 28744 ft | 369 kts | 287° |
| 2026-05-05 00:17 | 55.11314 | -1.90136 | 28243 ft | 367 kts | 287° |
| 2026-05-05 00:18 | 55.12114 | -1.94308 | 27756 ft | 364 kts | 290° |
| 2026-05-05 00:18 | 55.13235 | -1.98276 | 27256 ft | 362 kts | 298° |
| 2026-05-05 00:18 | 55.14510 | -2.02066 | 26763 ft | 359 kts | 299° |
| 2026-05-05 00:18 | 55.15782 | -2.05829 | 26300 ft | 357 kts | 298° |
| 2026-05-05 00:19 | 55.17010 | -2.09498 | 26082 ft | 351 kts | 298° |
| 2026-05-05 00:19 | 55.18243 | -2.13225 | 26038 ft | 354 kts | 298° |
| 2026-05-05 00:19 | 55.19485 | -2.17004 | 26029 ft | 356 kts | 298° |
| 2026-05-05 00:19 | 55.20703 | -2.20725 | 26030 ft | 355 kts | 298° |
| 2026-05-05 00:20 | 55.21932 | -2.24486 | 26030 ft | 354 kts | 298° |
| 2026-05-05 00:20 | 55.23157 | -2.28240 | 25895 ft | 352 kts | 298° |
| 2026-05-05 00:20 | 55.24363 | -2.31937 | 25560 ft | 351 kts | 297° |
| 2026-05-05 00:20 | 55.25581 | -2.35678 | 25160 ft | 349 kts | 297° |
| 2026-05-05 00:21 | 55.26773 | -2.39344 | 24686 ft | 346 kts | 297° |
| 2026-05-05 00:21 | 55.27954 | -2.42981 | 24213 ft | 344 kts | 297° |
| 2026-05-05 00:21 | 55.29139 | -2.46639 | 23753 ft | 342 kts | 297° |
| 2026-05-05 00:21 | 55.30297 | -2.50217 | 23279 ft | 338 kts | 297° |
| 2026-05-05 00:22 | 55.31441 | -2.53752 | 22971 ft | 329 kts | 297° |
| 2026-05-05 00:22 | 55.32585 | -2.57304 | 22037 ft | 337 kts | 297° |
| 2026-05-05 00:22 | 55.33745 | -2.60914 | 21221 ft | 343 kts | 297° |
| 2026-05-05 00:22 | 55.34924 | -2.64579 | 20664 ft | 341 kts | 297° |
| 2026-05-05 00:23 | 55.36087 | -2.68198 | 20125 ft | 338 kts | 297° |
| 2026-05-05 00:23 | 55.37226 | -2.71745 | 19585 ft | 336 kts | 297° |
| 2026-05-05 00:23 | 55.38368 | -2.75307 | 19057 ft | 334 kts | 297° |
| 2026-05-05 00:23 | 55.39509 | -2.78874 | 18532 ft | 332 kts | 297° |
| 2026-05-05 00:24 | 55.40633 | -2.82387 | 18297 ft | 321 kts | 297° |
| 2026-05-05 00:24 | 55.41696 | -2.85714 | 18110 ft | 308 kts | 297° |
| 2026-05-05 00:24 | 55.42737 | -2.88981 | 17689 ft | 303 kts | 297° |
| 2026-05-05 00:24 | 55.43756 | -2.92191 | 17192 ft | 301 kts | 297° |
| 2026-05-05 00:25 | 55.44769 | -2.95384 | 16699 ft | 299 kts | 297° |
| 2026-05-05 00:25 | 55.45713 | -2.98622 | 16206 ft | 296 kts | 291° |
| 2026-05-05 00:25 | 55.46379 | -3.02055 | 15716 ft | 293 kts | 283° |
| 2026-05-05 00:25 | 55.46763 | -3.05537 | 15233 ft | 290 kts | 279° |
| 2026-05-05 00:26 | 55.47113 | -3.09068 | 14748 ft | 289 kts | 279° |
| 2026-05-05 00:26 | 55.47473 | -3.12496 | 14306 ft | 286 kts | 280° |
| 2026-05-05 00:26 | 55.47843 | -3.15938 | 13863 ft | 285 kts | 280° |
| 2026-05-05 00:26 | 55.48213 | -3.19375 | 13391 ft | 283 kts | 280° |
| 2026-05-05 00:27 | 55.48573 | -3.22734 | 12882 ft | 280 kts | 280° |
| 2026-05-05 00:27 | 55.48932 | -3.26096 | 12339 ft | 279 kts | 280° |
| 2026-05-05 00:27 | 55.49290 | -3.29454 | 11818 ft | 276 kts | 280° |
| 2026-05-05 00:27 | 55.49648 | -3.32743 | 11281 ft | 274 kts | 282° |
| 2026-05-05 00:28 | 55.50231 | -3.35949 | 10759 ft | 272 kts | 292° |
| 2026-05-05 00:28 | 55.51123 | -3.38904 | 10293 ft | 270 kts | 302° |
| 2026-05-05 00:28 | 55.52134 | -3.41668 | 10110 ft | 269 kts | 301° |
| 2026-05-05 00:28 | 55.53125 | -3.44464 | 10055 ft | 271 kts | 301° |
| 2026-05-05 00:29 | 55.54111 | -3.47303 | 10054 ft | 271 kts | 300° |
| 2026-05-05 00:29 | 55.55082 | -3.50127 | 10052 ft | 271 kts | 300° |
| 2026-05-05 00:29 | 55.56062 | -3.52986 | 10056 ft | 271 kts | 300° |
| 2026-05-05 00:29 | 55.57044 | -3.55848 | 10057 ft | 271 kts | 300° |
| 2026-05-05 00:30 | 55.58011 | -3.58665 | 10041 ft | 270 kts | 300° |
| 2026-05-05 00:30 | 55.58987 | -3.61507 | 9787 ft | 268 kts | 300° |
| 2026-05-05 00:30 | 55.59955 | -3.64328 | 9339 ft | 266 kts | 300° |
| 2026-05-05 00:30 | 55.60900 | -3.67082 | 9114 ft | 265 kts | 301° |
| 2026-05-05 00:31 | 55.61871 | -3.69917 | 9060 ft | 267 kts | 300° |
| 2026-05-05 00:31 | 55.62836 | -3.72736 | 9015 ft | 265 kts | 300° |
| 2026-05-05 00:31 | 55.63779 | -3.75496 | 8720 ft | 264 kts | 300° |
| 2026-05-05 00:31 | 55.64714 | -3.78234 | 8268 ft | 262 kts | 300° |
| 2026-05-05 00:32 | 55.65646 | -3.80965 | 7978 ft | 251 kts | 300° |
| 2026-05-05 00:32 | 55.66529 | -3.83554 | 7672 ft | 240 kts | 300° |
| 2026-05-05 00:32 | 55.67378 | -3.86049 | 7235 ft | 236 kts | 300° |
| 2026-05-05 00:32 | 55.68226 | -3.88546 | 7087 ft | 239 kts | 300° |
| 2026-05-05 00:33 | 55.69076 | -3.91053 | 7050 ft | 239 kts | 301° |
| 2026-05-05 00:33 | 55.69938 | -3.93592 | 7049 ft | 239 kts | 300° |
| 2026-05-05 00:33 | 55.70699 | -3.96219 | 7072 ft | 238 kts | 290° |
| 2026-05-05 00:33 | 55.71492 | -3.98768 | 7050 ft | 239 kts | 311° |
| 2026-05-05 00:34 | 55.72873 | -4.00413 | 7062 ft | 241 kts | 338° |
| 2026-05-05 00:34 | 55.74510 | -4.01016 | 6863 ft | 243 kts | 351° |
| 2026-05-05 00:34 | 55.76179 | -4.01378 | 6493 ft | 242 kts | 350° |
| 2026-05-05 00:34 | 55.77834 | -4.01905 | 6019 ft | 239 kts | 345° |
| 2026-05-05 00:35 | 55.79428 | -4.02640 | 5519 ft | 238 kts | 342° |
| 2026-05-05 00:35 | 55.81007 | -4.03525 | 5132 ft | 233 kts | 340° |
| 2026-05-05 00:35 | 55.82555 | -4.04466 | 5012 ft | 236 kts | 339° |
| 2026-05-05 00:35 | 55.84114 | -4.05435 | 4997 ft | 236 kts | 339° |
| 2026-05-05 00:36 | 55.85668 | -4.06396 | 4999 ft | 236 kts | 339° |
| 2026-05-05 00:36 | 55.87210 | -4.07343 | 5001 ft | 236 kts | 339° |
| 2026-05-05 00:36 | 55.88748 | -4.08284 | 4918 ft | 234 kts | 340° |
| 2026-05-05 00:36 | 55.90297 | -4.09225 | 4634 ft | 232 kts | 340° |
| 2026-05-05 00:37 | 55.91828 | -4.10153 | 4171 ft | 231 kts | 340° |
| 2026-05-05 00:37 | 55.93327 | -4.11065 | 3741 ft | 229 kts | 340° |
| 2026-05-05 00:37 | 55.94837 | -4.11984 | 3327 ft | 226 kts | 339° |
| 2026-05-05 00:37 | 55.96321 | -4.12886 | 2980 ft | 221 kts | 339° |
| 2026-05-05 00:38 | 55.97778 | -4.13810 | 2896 ft | 226 kts | 335° |
| 2026-05-05 00:38 | 55.98988 | -4.15543 | 2889 ft | 224 kts | 305° |
| 2026-05-05 00:38 | 55.99524 | -4.18147 | 2903 ft | 227 kts | 276° |
| 2026-05-05 00:38 | 55.99234 | -4.20894 | 2897 ft | 231 kts | 245° |
| 2026-05-05 00:39 | 55.98182 | -4.23109 | 2895 ft | 238 kts | 224° |
| 2026-05-05 00:39 | 55.96943 | -4.25085 | 2854 ft | 238 kts | 225° |
| 2026-05-05 00:39 | 55.95773 | -4.27161 | 2432 ft | 236 kts | 231° |
| 2026-05-05 00:39 | 55.94693 | -4.29291 | 2093 ft | 231 kts | 228° |
| 2026-05-05 00:40 | 55.93583 | -4.31351 | 1777 ft | 227 kts | 231° |
| 2026-05-05 00:40 | 55.92497 | -4.33393 | 1438 ft | 228 kts | 227° |
| 2026-05-05 00:40 | 55.91443 | -4.35379 | 1109 ft | 209 kts | 229° |
| 2026-05-05 00:40 | 55.90521 | -4.37090 | 821 ft | 191 kts | 227° |
| 2026-05-05 00:41 | 55.89667 | -4.38702 | 575 ft | 176 kts | 228° |
| 2026-05-05 00:41 | 55.88859 | -4.40206 | 363 ft | 158 kts | 227° |
| 2026-05-05 00:41 | 55.88375 | -4.41119 | 224 ft | 146 kts | 227° |
| 2026-05-05 00:41 | 55.87687 | -4.42402 | 43 ft | 144 kts | 226° |
| 2026-05-05 00:42 | 55.87045 | -4.43603 | 35 ft | 126 kts | 225° |
| 2026-05-05 00:42 | 55.86651 | -4.44291 | 34 ft | 21 kts | 226° |
| 2026-05-05 00:42 | 55.86559 | -4.44453 | 35 ft | 18 kts | 215° |
| 2026-05-05 00:42 | 55.86444 | -4.44531 | 35 ft | 18 kts | 197° |
| 2026-05-05 00:43 | 55.86374 | -4.44459 | 35 ft | 9 kts | 92° |
| 2026-05-05 00:43 | 55.86416 | -4.44353 | 35 ft | 22 kts | 50° |
| 2026-05-05 00:43 | 55.86560 | -4.44073 | 35 ft | 32 kts | 45° |
| 2026-05-05 00:43 | 55.86715 | -4.43795 | 35 ft | 31 kts | 45° |
| 2026-05-05 00:44 | 55.86733 | -4.43664 | 32 ft | 16 kts | 111° |
| 2026-05-05 00:44 | 55.86645 | -4.43577 | 35 ft | 23 kts | 173° |
| 2026-05-05 00:44 | 55.86546 | -4.43564 | 35 ft | 2 kts | 200° |
| 2026-05-05 00:44 | 55.86525 | -4.43644 | 35 ft | 0 kts | 254° |
| 2026-05-05 00:45 | 55.86525 | -4.43641 | 35 ft | 2 kts | 252° |
| 2026-05-05 00:45 | 55.86530 | -4.43613 | 35 ft | 2 kts | 268° |
| 2026-05-05 00:45 | 55.86526 | -4.43618 | 34 ft | 3 kts | 252° |
| 2026-05-05 00:45 | 55.86520 | -4.43650 | 34 ft | 2 kts | 253° |
| 2026-05-05 00:46 | 55.86519 | -4.43656 | 35 ft | 0 kts | 253° |